createdAt,value
2022-08-08T00:00:56.088Z,1.70
2022-08-08T00:02:38.716Z,1.60
2022-08-08T00:05:18.774Z,1.60
2022-08-08T00:08:09.668Z,1.90
2022-08-08T00:10:52.805Z,1.77
2022-08-08T00:14:17.371Z,1.70
2022-08-08T00:16:42.497Z,1.53
2022-08-08T00:19:18.627Z,1.90
2022-08-08T00:21:51.071Z,1.50
2022-08-08T00:24:30.129Z,1.60
2022-08-08T00:27:02.538Z,1.40
2022-08-08T00:29:45.593Z,1.40
2022-08-08T00:32:35.406Z,1.30
2022-08-08T00:35:21.240Z,1.20
2022-08-08T00:38:16.867Z,1.57
2022-08-08T00:41:54.555Z,1.70
2022-08-08T00:44:23.311Z,1.80
2022-08-08T00:48:05.597Z,1.60
2022-08-08T00:50:31.958Z,1.77
2022-08-08T00:53:29.476Z,1.67
2022-08-08T00:56:20.901Z,1.37
2022-08-08T00:59:43.733Z,1.67
2022-08-08T01:03:58.832Z,1.80
2022-08-08T01:05:59.327Z,1.70
2022-08-08T01:08:52.268Z,1.63
2022-08-08T01:11:51.824Z,1.80
2022-08-08T01:14:53.189Z,2.10
2022-08-08T01:17:53.815Z,1.80
2022-08-08T01:20:38.221Z,1.67
2022-08-08T01:24:06.096Z,1.97
2022-08-08T01:27:16.206Z,1.47
2022-08-08T01:30:01.761Z,1.60
2022-08-08T01:32:52.152Z,1.80
2022-08-08T01:35:55.829Z,2.00
2022-08-08T01:38:49.658Z,1.80
2022-08-08T01:41:34.415Z,2.03
2022-08-08T01:44:34.541Z,2.00
2022-08-08T01:48:16.314Z,1.80
2022-08-08T01:50:17.067Z,1.80
2022-08-08T01:55:25.755Z,1.83
2022-08-08T01:56:29.554Z,2.33
2022-08-08T01:59:10.497Z,1.77
2022-08-08T02:02:07.362Z,1.77
2022-08-08T02:05:03.666Z,1.80
2022-08-08T02:07:50.234Z,2.40
2022-08-08T02:10:53.499Z,1.80
2022-08-08T02:13:54.006Z,2.27
2022-08-08T02:16:21.143Z,2.40
2022-08-08T02:19:57.127Z,2.00
2022-08-08T02:23:05.761Z,2.10
2022-08-08T02:26:08.156Z,2.30
2022-08-08T02:28:56.770Z,2.27
2022-08-08T02:31:58.201Z,2.27
2022-08-08T02:35:08.528Z,2.20
2022-08-08T02:37:52.168Z,2.33
2022-08-08T02:40:45.281Z,2.40
2022-08-08T02:44:34.874Z,2.30
2022-08-08T02:46:27.779Z,1.70
2022-08-08T02:49:14.572Z,2.07
2022-08-08T02:52:32.376Z,1.97
2022-08-08T02:55:37.330Z,2.13
2022-08-08T02:58:40.950Z,2.10
2022-08-08T03:01:50.350Z,2.17
2022-08-08T03:05:12.417Z,2.27
2022-08-08T03:08:16.149Z,2.30
2022-08-08T03:11:13.859Z,1.70
2022-08-08T03:15:57.497Z,1.90
2022-08-08T03:17:19.927Z,2.20
2022-08-08T03:20:07.999Z,2.30
2022-08-08T03:22:44.474Z,1.73
2022-08-08T03:25:18.056Z,2.60
2022-08-08T03:27:57.328Z,2.60
2022-08-08T03:30:25.203Z,2.50
2022-08-08T03:33:54.733Z,2.17
2022-08-08T03:35:58.721Z,2.90
2022-08-08T03:38:56.191Z,2.30
2022-08-08T03:41:32.198Z,2.33
2022-08-08T03:43:59.510Z,2.60
2022-08-08T03:46:32.739Z,2.30
2022-08-08T03:49:55.008Z,2.30
2022-08-08T03:51:55.824Z,1.87
2022-08-08T03:54:51.516Z,2.13
2022-08-08T03:58:35.414Z,2.10
2022-08-08T04:00:07.956Z,2.13
2022-08-08T04:02:47.714Z,2.40
2022-08-08T04:05:19.198Z,2.87
2022-08-08T04:07:49.346Z,3.10
2022-08-08T04:10:17.914Z,2.97
2022-08-08T04:12:44.463Z,3.20
2022-08-08T04:15:12.569Z,2.80
2022-08-08T04:17:57.836Z,2.90
2022-08-08T04:20:28.435Z,2.97
2022-08-08T04:22:57.124Z,2.77
2022-08-08T04:25:30.091Z,2.80
2022-08-08T04:28:35.279Z,2.57
2022-08-08T04:30:47.515Z,2.80
2022-08-08T04:33:15.433Z,3.03
2022-08-08T04:35:42.985Z,3.10
2022-08-08T04:38:21.344Z,3.20
2022-08-08T04:40:53.265Z,2.87
2022-08-08T04:43:32.400Z,3.60
2022-08-08T04:46:09.685Z,3.13
2022-08-08T04:48:36.090Z,3.63
2022-08-08T04:51:02.476Z,3.07
2022-08-08T04:54:26.766Z,3.40
2022-08-08T04:56:17.571Z,3.83
2022-08-08T04:58:44.307Z,4.23
2022-08-08T05:01:12.696Z,3.60
2022-08-08T05:04:08.171Z,3.93
2022-08-08T05:06:29.075Z,3.83
2022-08-08T05:09:02.981Z,3.73
2022-08-08T05:11:38.884Z,3.53
2022-08-08T05:14:06.546Z,3.67
2022-08-08T05:16:51.535Z,3.60
2022-08-08T05:20:09.193Z,3.27
2022-08-08T05:22:08.740Z,3.70
2022-08-08T05:24:38.532Z,4.17
2022-08-08T05:27:05.768Z,4.00
2022-08-08T05:29:32.250Z,4.43
2022-08-08T05:32:06.216Z,4.63
2022-08-08T05:34:49.260Z,4.97
2022-08-08T05:37:19.443Z,4.60
2022-08-08T05:39:52.884Z,5.37
2022-08-08T05:42:25.535Z,6.30
2022-08-08T05:44:53.935Z,5.47
2022-08-08T05:47:23.990Z,5.07
2022-08-08T05:49:57.176Z,4.30
2022-08-08T05:52:32.060Z,4.77
2022-08-08T05:55:08.981Z,3.17
2022-08-08T05:58:05.144Z,4.20
2022-08-08T06:00:27.958Z,5.10
2022-08-08T06:03:10.499Z,3.10
2022-08-08T06:05:58.966Z,2.63
2022-08-08T06:08:34.497Z,3.07
2022-08-08T06:11:04.169Z,2.80
2022-08-08T06:13:35.593Z,4.03
2022-08-08T06:16:02.996Z,3.50
2022-08-08T06:18:30.142Z,3.30
2022-08-08T06:21:11.773Z,2.47
2022-08-08T06:23:52.548Z,2.30
2022-08-08T06:26:43.597Z,3.13
2022-08-08T06:29:48.566Z,4.37
2022-08-08T06:32:15.112Z,4.33
2022-08-08T06:34:56.713Z,3.70
2022-08-08T06:37:39.628Z,2.83
2022-08-08T06:40:12.780Z,2.90
2022-08-08T06:43:06.399Z,3.37
2022-08-08T06:45:39.104Z,2.60
2022-08-08T06:48:06.015Z,2.07
2022-08-08T06:50:33.735Z,2.30
2022-08-08T06:53:14.077Z,2.40
2022-08-08T06:55:47.208Z,2.00
2022-08-08T06:58:20.051Z,2.20
2022-08-08T07:00:49.700Z,1.77
2022-08-08T07:04:34.513Z,2.30
2022-08-08T07:06:31.876Z,2.40
2022-08-08T07:09:08.867Z,2.30
2022-08-08T07:11:50.678Z,2.30
2022-08-08T07:14:27.902Z,2.30
2022-08-08T07:17:09.460Z,2.50
2022-08-08T07:19:49.103Z,1.97
2022-08-08T07:22:24.076Z,2.33
2022-08-08T07:25:01.644Z,1.77
2022-08-08T07:27:47.324Z,1.73
2022-08-08T07:30:25.910Z,1.87
2022-08-08T07:32:54.412Z,1.77
2022-08-08T07:35:21.632Z,1.97
2022-08-08T07:38:04.958Z,2.00
2022-08-08T07:40:37.341Z,2.13
2022-08-08T07:43:08.901Z,1.83
2022-08-08T07:46:05.291Z,2.10
2022-08-08T07:48:23.915Z,1.47
2022-08-08T07:50:53.846Z,1.60
2022-08-08T07:54:00.982Z,1.70
2022-08-08T07:56:36.108Z,1.60
2022-08-08T07:59:10.781Z,1.80
2022-08-08T08:02:37.091Z,1.30
2022-08-08T08:04:33.531Z,1.60
2022-08-08T08:07:08.760Z,1.97
2022-08-08T08:09:39.369Z,1.53
2022-08-08T08:12:07.114Z,1.40
2022-08-08T08:15:03.069Z,1.47
2022-08-08T08:17:44.170Z,1.73
2022-08-08T08:20:16.359Z,1.40
2022-08-08T08:22:43.295Z,1.30
2022-08-08T08:25:09.821Z,1.33
2022-08-08T08:27:36.970Z,1.73
2022-08-08T08:30:04.777Z,1.80
2022-08-08T08:32:36.385Z,1.53
2022-08-08T08:35:05.224Z,1.43
2022-08-08T08:37:33.238Z,1.70
2022-08-08T08:40:02.787Z,1.53
2022-08-08T08:42:35.701Z,1.43
2022-08-08T08:45:16.466Z,1.60
2022-08-08T08:47:53.443Z,1.30
2022-08-08T08:50:33.009Z,1.30
2022-08-08T08:53:27.637Z,1.30
2022-08-08T08:56:01.219Z,1.27
2022-08-08T08:58:50.281Z,1.40
2022-08-08T09:01:24.675Z,1.10
2022-08-08T09:03:53.149Z,1.40
2022-08-08T09:06:28.762Z,1.30
2022-08-08T09:09:39.717Z,1.30
2022-08-08T09:12:17.462Z,1.07
2022-08-08T09:14:48.536Z,1.10
2022-08-08T09:17:19.287Z,1.33
2022-08-08T09:22:01.320Z,1.27
2022-08-08T09:22:36.132Z,1.07
2022-08-08T09:25:06.468Z,0.90
2022-08-08T09:27:56.337Z,0.70
2022-08-08T09:30:23.166Z,0.90
2022-08-08T09:33:55.686Z,1.10
2022-08-08T09:35:48.874Z,0.90
2022-08-08T09:38:29.903Z,1.00
2022-08-08T09:41:04.393Z,0.80
2022-08-08T09:44:04.976Z,0.80
2022-08-08T09:46:25.658Z,0.80
2022-08-08T09:48:58.267Z,1.33
2022-08-08T09:52:01.705Z,0.70
2022-08-08T09:54:44.812Z,0.83
2022-08-08T09:57:17.646Z,0.77
2022-08-08T10:00:27.612Z,0.70
2022-08-08T10:02:45.998Z,0.90
2022-08-08T10:05:25.258Z,0.93
2022-08-08T10:07:52.120Z,1.17
2022-08-08T10:10:31.901Z,1.17
2022-08-08T10:13:15.687Z,1.00
2022-08-08T10:16:01.626Z,0.80
2022-08-08T10:18:33.562Z,0.90
2022-08-08T10:21:25.070Z,0.90
2022-08-08T10:23:55.932Z,1.07
2022-08-08T10:26:51.800Z,1.00
2022-08-08T10:29:23.350Z,1.00
2022-08-08T10:32:16.379Z,0.93
2022-08-08T10:35:01.373Z,1.10
2022-08-08T10:37:35.924Z,0.80
2022-08-08T10:40:16.297Z,1.10
2022-08-08T10:42:44.894Z,0.90
2022-08-08T10:45:12.139Z,1.17
2022-08-08T10:47:48.755Z,1.10
2022-08-08T10:50:23.756Z,1.10
2022-08-08T10:52:50.506Z,1.40
2022-08-08T10:55:41.157Z,0.73
2022-08-08T10:58:08.339Z,1.23
2022-08-08T11:00:53.189Z,0.90
2022-08-08T11:03:37.050Z,1.10
2022-08-08T11:06:16.006Z,1.43
2022-08-08T11:08:53.466Z,1.07
2022-08-08T11:11:31.628Z,1.10
2022-08-08T11:14:02.690Z,1.10
2022-08-08T11:16:34.567Z,0.90
2022-08-08T11:19:04.436Z,1.50
2022-08-08T11:21:41.062Z,1.30
2022-08-08T11:24:10.632Z,1.00
2022-08-08T11:26:53.967Z,0.87
2022-08-08T11:29:41.967Z,1.10
2022-08-08T11:32:13.513Z,1.00
2022-08-08T11:35:07.974Z,0.90
2022-08-08T11:38:34.617Z,1.07
2022-08-08T11:40:22.389Z,0.90
2022-08-08T11:42:54.013Z,0.90
2022-08-08T11:45:22.848Z,0.70
2022-08-08T11:48:02.948Z,1.20
2022-08-08T11:50:33.739Z,0.70
2022-08-08T11:53:06.235Z,0.83
2022-08-08T11:55:36.341Z,0.90
2022-08-08T11:58:06.851Z,0.70
2022-08-08T12:00:50.520Z,1.00
2022-08-08T12:03:31.348Z,0.93
2022-08-08T12:05:58.307Z,0.60
2022-08-08T12:08:37.515Z,0.90
2022-08-08T12:11:09.947Z,0.70
2022-08-08T12:14:02.636Z,0.97
2022-08-08T12:16:30.769Z,0.90
2022-08-08T12:19:02.275Z,0.80
2022-08-08T12:21:59.615Z,1.30
2022-08-08T12:24:27.853Z,1.03
2022-08-08T12:26:58.660Z,1.10
2022-08-08T12:29:41.928Z,1.00
2022-08-08T12:32:13.390Z,1.30
2022-08-08T12:35:01.239Z,0.80
2022-08-08T12:37:43.101Z,0.83
2022-08-08T12:40:23.036Z,1.00
2022-08-08T12:42:52.489Z,1.10
2022-08-08T12:45:59.516Z,1.03
2022-08-08T12:48:32.170Z,1.00
2022-08-08T12:50:58.447Z,0.67
2022-08-08T12:53:28.317Z,0.90
2022-08-08T12:56:18.666Z,0.90
2022-08-08T12:58:54.002Z,1.77
2022-08-08T13:01:34.401Z,0.93
2022-08-08T13:04:24.602Z,0.70
2022-08-08T13:07:07.421Z,0.90
2022-08-08T13:10:04.757Z,0.80
2022-08-08T13:12:38.631Z,1.00
2022-08-08T13:15:10.956Z,0.90
2022-08-08T13:18:09.406Z,0.80
2022-08-08T13:20:27.183Z,0.70
2022-08-08T13:23:31.243Z,0.93
2022-08-08T13:25:43.488Z,0.70
2022-08-08T13:28:09.907Z,0.80
2022-08-08T13:30:36.310Z,0.87
2022-08-08T13:33:03.946Z,0.70
2022-08-08T13:35:39.027Z,1.27
2022-08-08T13:38:13.675Z,1.00
2022-08-08T13:40:45.196Z,0.80
2022-08-08T13:43:16.002Z,0.90
2022-08-08T13:45:47.575Z,0.70
2022-08-08T13:48:16.733Z,1.00
2022-08-08T13:50:53.921Z,0.90
2022-08-08T13:53:33.957Z,0.97
2022-08-08T13:56:06.974Z,1.10
2022-08-08T13:58:57.222Z,0.80
2022-08-08T14:01:41.591Z,0.70
2022-08-08T14:04:21.768Z,0.60
2022-08-08T14:06:48.612Z,0.70
2022-08-08T14:09:25.035Z,1.00
2022-08-08T14:12:00.481Z,0.50
2022-08-08T14:14:47.143Z,0.90
2022-08-08T14:17:36.223Z,0.80
2022-08-08T14:20:07.793Z,0.70
2022-08-08T14:22:43.134Z,0.80
2022-08-08T14:25:17.575Z,0.50
2022-08-08T14:28:00.286Z,0.67
2022-08-08T14:30:34.316Z,0.70
2022-08-08T14:33:01.439Z,0.80
2022-08-08T14:35:35.986Z,0.80
2022-08-08T14:38:33.618Z,1.20
2022-08-08T14:40:54.338Z,1.00
2022-08-08T14:44:02.248Z,0.60
2022-08-08T14:46:30.974Z,0.70
2022-08-08T14:49:20.723Z,0.60
2022-08-08T14:52:08.092Z,0.83
2022-08-08T14:54:45.838Z,1.07
2022-08-08T14:57:12.466Z,1.17
2022-08-08T14:59:50.797Z,1.07
2022-08-08T15:02:25.813Z,0.77
2022-08-08T15:04:57.387Z,0.80
2022-08-08T15:07:40.350Z,1.00
2022-08-08T15:10:09.902Z,0.83
2022-08-08T15:12:36.940Z,0.70
2022-08-08T15:15:09.094Z,0.70
2022-08-08T15:17:37.737Z,0.80
2022-08-08T15:20:12.437Z,0.80
2022-08-08T15:22:41.430Z,0.80
2022-08-08T15:25:18.080Z,0.90
2022-08-08T15:28:04.885Z,1.10
2022-08-08T15:30:43.327Z,0.80
2022-08-08T15:33:20.715Z,1.10
2022-08-08T15:35:58.546Z,0.90
2022-08-08T15:38:25.775Z,0.70
2022-08-08T15:40:52.302Z,0.70
2022-08-08T15:43:36.360Z,0.83
2022-08-08T15:46:03.638Z,0.87
2022-08-08T15:48:31.167Z,1.23
2022-08-08T15:51:01.641Z,1.00
2022-08-08T15:53:40.253Z,1.00
2022-08-08T15:56:15.863Z,0.97
2022-08-08T15:58:48.233Z,0.80
2022-08-08T16:01:15.334Z,0.80
2022-08-08T16:03:42.303Z,1.10
2022-08-08T16:06:14.362Z,1.03
2022-08-08T16:09:02.458Z,1.03
2022-08-08T16:13:03.641Z,0.90
2022-08-08T16:14:16.041Z,0.70
2022-08-08T16:16:59.475Z,1.23
2022-08-08T16:19:26.220Z,0.83
2022-08-08T16:21:54.113Z,0.80
2022-08-08T16:24:23.041Z,0.90
2022-08-08T16:26:50.759Z,1.00
2022-08-08T16:29:37.192Z,1.40
2022-08-08T16:32:11.600Z,0.90
2022-08-08T16:34:47.332Z,0.90
2022-08-08T16:37:13.730Z,0.80
2022-08-08T16:39:59.719Z,1.00
2022-08-08T16:42:28.054Z,0.77
2022-08-08T16:44:55.622Z,0.97
2022-08-08T16:47:40.367Z,0.70
2022-08-08T16:50:15.303Z,0.90
2022-08-08T16:55:02.361Z,1.30
2022-08-08T16:55:54.076Z,0.70
2022-08-08T16:58:25.626Z,1.17
2022-08-08T17:00:53.280Z,0.90
2022-08-08T17:03:25.029Z,0.83
2022-08-08T17:06:37.702Z,1.20
2022-08-08T17:08:54.493Z,0.97
2022-08-08T17:11:20.913Z,1.20
2022-08-08T17:14:01.397Z,1.23
2022-08-08T17:16:28.662Z,1.10
2022-08-08T17:18:55.645Z,1.13
2022-08-08T17:21:22.670Z,0.90
2022-08-08T17:24:00.130Z,1.40
2022-08-08T17:26:29.864Z,1.57
2022-08-08T17:29:03.844Z,1.10
2022-08-08T17:31:44.203Z,1.10
2022-08-08T17:34:48.297Z,1.30
2022-08-08T17:37:03.240Z,1.30
2022-08-08T17:40:04.868Z,1.40
2022-08-08T17:42:18.648Z,1.37
2022-08-08T17:44:49.096Z,1.03
2022-08-08T17:47:23.956Z,1.23
2022-08-08T17:50:01.409Z,1.23
2022-08-08T17:52:34.059Z,1.13
2022-08-08T17:55:00.990Z,1.27
2022-08-08T17:57:35.449Z,1.03
2022-08-08T18:00:04.707Z,0.90
2022-08-08T18:02:40.011Z,1.10
2022-08-08T18:05:14.721Z,1.07
2022-08-08T18:08:11.610Z,1.07
2022-08-08T18:10:35.838Z,1.20
2022-08-08T18:13:04.055Z,1.50
2022-08-08T18:15:33.926Z,1.30
2022-08-08T18:18:27.469Z,1.63
2022-08-08T18:20:59.160Z,1.40
2022-08-08T18:23:26.204Z,1.13
2022-08-08T18:25:55.346Z,1.37
2022-08-08T18:28:28.069Z,1.30
2022-08-08T18:31:01.330Z,1.10
2022-08-08T18:34:10.145Z,0.93
2022-08-08T18:36:23.446Z,1.37
2022-08-08T18:38:52.216Z,1.73
2022-08-08T18:41:19.220Z,1.40
2022-08-08T18:44:05.326Z,1.50
2022-08-08T18:46:54.150Z,1.37
2022-08-08T18:49:18.417Z,1.27
2022-08-08T18:51:52.743Z,1.37
2022-08-08T18:54:24.729Z,1.40
2022-08-08T18:56:56.994Z,1.50
2022-08-08T18:59:23.462Z,1.40
2022-08-08T19:02:26.035Z,1.30
2022-08-08T19:04:37.865Z,1.20
2022-08-08T19:07:04.374Z,1.30
2022-08-08T19:09:48.437Z,1.00
2022-08-08T19:12:16.561Z,1.07
2022-08-08T19:14:43.267Z,1.20
2022-08-08T19:17:10.664Z,1.20
2022-08-08T19:19:37.669Z,1.20
2022-08-08T19:22:10.843Z,0.97
2022-08-08T19:24:54.349Z,1.00
2022-08-08T19:27:56.505Z,1.30
2022-08-08T19:30:24.024Z,1.10
2022-08-08T19:32:52.490Z,1.50
2022-08-08T19:35:25.677Z,1.60
2022-08-08T19:38:07.354Z,1.30
2022-08-08T19:40:37.575Z,0.90
2022-08-08T19:43:11.766Z,1.37
2022-08-08T19:45:58.274Z,1.50
2022-08-08T19:48:29.003Z,1.00
2022-08-08T19:50:59.369Z,1.30
2022-08-08T19:53:52.225Z,1.40
2022-08-08T19:56:16.151Z,1.57
2022-08-08T19:58:42.829Z,1.50
2022-08-08T20:01:19.655Z,1.40
2022-08-08T20:04:01.285Z,1.20
2022-08-08T20:06:29.703Z,1.30
2022-08-08T20:08:56.790Z,1.10
2022-08-08T20:11:23.711Z,1.27
2022-08-08T20:14:32.609Z,1.60
2022-08-08T20:16:40.933Z,1.30
2022-08-08T20:19:08.218Z,1.10
2022-08-08T20:21:37.296Z,1.70
2022-08-08T20:24:05.795Z,1.63
2022-08-08T20:26:33.968Z,1.17
2022-08-08T20:29:02.965Z,1.10
2022-08-08T20:32:02.677Z,1.30
2022-08-08T20:34:28.919Z,1.67
2022-08-08T20:36:58.687Z,1.30
2022-08-08T20:39:25.390Z,1.27
2022-08-08T20:42:00.351Z,1.20
2022-08-08T20:44:26.803Z,1.67
2022-08-08T20:46:53.257Z,1.30
2022-08-08T20:49:20.301Z,1.50
2022-08-08T20:51:48.584Z,1.40
2022-08-08T20:54:26.007Z,1.30
2022-08-08T20:57:16.533Z,1.73
2022-08-08T20:59:41.800Z,1.23
2022-08-08T21:02:12.621Z,1.27
2022-08-08T21:04:43.560Z,1.00
2022-08-08T21:07:16.334Z,0.97
2022-08-08T21:09:48.679Z,1.20
2022-08-08T21:12:33.384Z,1.20
2022-08-08T21:15:07.191Z,1.30
2022-08-08T21:17:36.825Z,1.07
2022-08-08T21:20:04.413Z,1.00
2022-08-08T21:22:31.045Z,1.13
2022-08-08T21:24:58.400Z,1.00
2022-08-08T21:28:06.309Z,1.00
2022-08-08T21:30:19.343Z,1.40
2022-08-08T21:32:52.005Z,1.10
2022-08-08T21:36:13.999Z,0.90
2022-08-08T21:38:16.470Z,1.20
2022-08-08T21:40:55.075Z,1.10
2022-08-08T21:43:33.277Z,1.37
2022-08-08T21:48:04.627Z,1.20
2022-08-08T21:48:49.405Z,1.87
2022-08-08T21:52:09.744Z,1.40
2022-08-08T21:54:33.387Z,1.20
2022-08-08T21:56:54.006Z,1.13
2022-08-08T21:59:21.098Z,1.50
2022-08-08T22:01:52.342Z,1.33
2022-08-08T22:04:24.830Z,1.70
2022-08-08T22:06:52.434Z,1.40
2022-08-08T22:09:19.050Z,1.20
2022-08-08T22:12:02.175Z,1.37
2022-08-08T22:14:31.107Z,1.20
2022-08-08T22:17:01.013Z,1.40
2022-08-08T22:19:29.461Z,1.43
2022-08-08T22:21:56.545Z,1.60
2022-08-08T22:24:28.026Z,1.60
2022-08-08T22:27:01.596Z,1.83
2022-08-08T22:29:59.369Z,1.43
2022-08-08T22:32:18.841Z,1.73
2022-08-08T22:34:51.125Z,1.17
2022-08-08T22:37:27.891Z,2.00
2022-08-08T22:40:06.465Z,1.90
2022-08-08T22:42:34.873Z,1.47
2022-08-08T22:45:02.994Z,1.30
2022-08-08T22:47:37.925Z,1.63
2022-08-08T22:50:20.769Z,1.47
2022-08-08T22:54:17.070Z,1.43
2022-08-08T22:55:58.820Z,1.33
2022-08-08T22:58:32.957Z,1.70
2022-08-08T23:01:01.694Z,1.80
2022-08-08T23:03:53.410Z,1.40
2022-08-08T23:06:21.299Z,1.83
2022-08-08T23:08:55.098Z,2.00
2022-08-08T23:12:17.332Z,1.47
2022-08-08T23:14:11.820Z,1.50
2022-08-08T23:16:43.810Z,1.80
2022-08-08T23:19:10.873Z,1.60
2022-08-08T23:21:38.089Z,1.50
2022-08-08T23:24:06.571Z,1.10
2022-08-08T23:26:33.939Z,1.57
2022-08-08T23:29:00.765Z,1.40
2022-08-08T23:31:27.196Z,1.43
2022-08-08T23:34:18.503Z,1.60
2022-08-08T23:36:40.258Z,1.67
2022-08-08T23:39:07.504Z,1.70
2022-08-08T23:41:46.238Z,1.30
2022-08-08T23:44:14.324Z,1.50
2022-08-08T23:49:02.738Z,1.70
2022-08-08T23:49:27.537Z,1.40
2022-08-08T23:52:04.923Z,1.50
2022-08-08T23:54:41.192Z,1.67
2022-08-08T23:57:15.289Z,1.70
